Time;durP1;ratioP1;P1;durP2;ratioP2;P2;SDS_P1;SDS_P2;PMS_P1;PMS_P2;Temp;Humidity;BMP_temperature;BMP_pressure;BME280_temperature;BME280_humidity;BME280_pressure;Samples;Min_cycle;Max_cycle;Signal;HPM_P1;HPM_P2
2022/04/23 00:04:22;;;;;;;26.63;17.92;;;;;;;11.51;68.05;99008.88;21021993;28;20056;-65
2022/04/23 00:14:25;;;;;;;28.48;17.48;;;;;;;11.44;68.53;99020.50;20999435;28;20097;-66
2022/04/23 00:24:26;;;;;;;26.85;18.33;;;;;;;11.29;69.78;99021.13;21012832;28;20044;-67
2022/04/23 00:34:28;;;;;;;23.95;17.75;;;;;;;11.33;70.14;99025.34;21012227;28;20110;-67
2022/04/23 00:44:30;;;;;;;28.08;18.75;;;;;;;11.13;71.53;99025.31;21019954;28;20047;-66
2022/04/23 00:54:32;;;;;;;27.55;19.55;;;;;;;11.09;71.53;99011.47;21009916;28;20574;-68
2022/04/23 01:04:35;;;;;;;26.80;19.02;;;;;;;11.09;71.56;99021.09;21013009;28;20135;-68
2022/04/23 01:15:00;;;;;;;28.13;19.05;;;;;;;11.14;72.39;99012.13;21014104;28;20036;-67
2022/04/23 01:25:07;;;;;;;27.30;19.10;;;;;;;10.82;74.00;98997.69;21015782;28;20048;-66
2022/04/23 01:35:09;;;;;;;26.98;19.05;;;;;;;10.77;75.25;98986.53;21018060;28;20456;-68
2022/04/23 01:45:10;;;;;;;29.75;20.35;;;;;;;10.57;76.37;98995.16;21030181;28;20048;-67
2022/04/23 01:55:11;;;;;;;29.60;19.27;;;;;;;10.38;77.68;98988.94;21029583;28;20041;-66
2022/04/23 02:05:13;;;;;;;28.83;19.80;;;;;;;10.27;78.45;99010.25;21024542;28;20040;-66
2022/04/23 02:15:16;;;;;;;29.92;19.75;;;;;;;10.17;79.31;99030.63;21025001;28;20431;-67
2022/04/23 02:25:19;;;;;;;30.90;19.38;;;;;;;9.97;81.34;99022.66;21027588;28;20056;-67
2022/04/23 02:35:21;;;;;;;28.65;19.05;;;;;;;9.86;82.52;99030.84;21024396;28;20052;-67
2022/04/23 02:45:25;;;;;;;27.90;20.02;;;;;;;9.80;83.27;99028.47;21019579;28;20105;-66
2022/04/23 02:55:28;;;;;;;26.97;19.20;;;;;;;9.66;84.55;99020.25;21021456;28;20047;-67
2022/04/23 03:05:31;;;;;;;30.42;19.42;;;;;;;9.55;84.92;99028.44;21026493;28;20052;-67
2022/04/23 03:15:34;;;;;;;29.35;19.40;;;;;;;9.46;86.04;99024.38;21019493;28;20071;-67
2022/04/23 03:25:36;;;;;;;34.03;20.08;;;;;;;9.32;87.86;99021.38;21019502;28;20072;-68
2022/04/23 03:35:37;;;;;;;30.27;19.52;;;;;;;9.19;88.80;99030.50;21019325;28;20109;-66
2022/04/23 03:45:39;;;;;;;30.70;19.77;;;;;;;9.04;90.09;99021.41;21023014;28;20676;-67
2022/04/23 03:55:41;;;;;;;31.13;19.55;;;;;;;8.94;90.67;99020.81;21013977;28;20043;-67
2022/04/23 04:05:42;;;;;;;30.38;20.52;;;;;;;8.97;90.94;99019.91;21017393;28;20060;-67
2022/04/23 04:15:45;;;;;;;32.70;21.13;;;;;;;8.98;90.86;99012.00;21019280;28;20477;-66
2022/04/23 04:25:47;;;;;;;32.13;22.40;;;;;;;8.87;91.54;99018.47;21014371;28;20047;-67
2022/04/23 04:35:49;;;;;;;32.63;21.10;;;;;;;8.88;92.47;99013.19;21009866;28;20094;-67
2022/04/23 04:45:56;;;;;;;35.63;21.73;;;;;;;8.85;92.41;99026.31;21121120;23;20058;-73
2022/04/23 04:55:58;;;;;;;30.08;20.55;;;;;;;8.90;93.12;99037.47;21057052;28;20048;-73
2022/04/23 05:05:59;;;;;;;30.42;21.08;;;;;;;8.95;93.53;99043.41;21062465;28;20119;-73
2022/04/23 05:16:01;;;;;;;30.55;20.00;;;;;;;9.12;92.65;99055.09;21059183;28;20051;-73
2022/04/23 05:26:03;;;;;;;29.38;20.08;;;;;;;9.27;91.98;99074.66;21064726;28;20077;-74
2022/04/23 05:36:06;;;;;;;29.20;19.75;;;;;;;9.45;92.13;99074.06;21061287;28;20078;-72
2022/04/23 05:46:08;;;;;;;26.20;17.98;;;;;;;9.43;92.47;99068.88;21062878;28;20123;-72
2022/04/23 05:56:14;;;;;;;26.02;17.92;;;;;;;9.63;91.09;99089.16;21058445;28;20263;-72
2022/04/23 06:06:16;;;;;;;25.25;17.15;;;;;;;9.81;91.36;99097.28;21053208;28;20060;-71
2022/04/23 06:16:17;;;;;;;20.67;15.50;;;;;;;10.22;89.38;99088.03;21058279;28;20094;-71
2022/04/23 06:26:19;;;;;;;22.23;14.73;;;;;;;10.45;88.10;99105.56;21075200;28;20588;-71
2022/04/23 06:36:21;;;;;;;20.92;15.30;;;;;;;10.72;85.63;99103.69;21069955;28;20079;-71
2022/04/23 06:46:22;;;;;;;18.33;13.38;;;;;;;10.76;85.34;99105.28;21069412;28;20040;-71
2022/04/23 06:56:24;;;;;;;19.52;12.57;;;;;;;11.12;83.33;99107.44;21038300;28;20045;-71
2022/04/23 07:06:25;;;;;;;19.25;12.88;;;;;;;11.15;82.91;99112.53;21021899;28;20048;-70
2022/04/23 07:16:27;;;;;;;15.52;10.57;;;;;;;11.52;80.71;99111.94;21012579;28;20187;-72
2022/04/23 07:26:30;;;;;;;13.63;9.85;;;;;;;11.84;79.35;99118.53;21015054;28;20051;-71
2022/04/23 07:46:52;;;;;;;14.73;9.45;;;;;;;12.57;76.55;99112.75;21020065;28;20040;-73
2022/04/23 07:56:53;;;;;;;13.68;8.65;;;;;;;12.70;75.74;99099.09;21053996;28;20042;-71
2022/04/23 08:06:55;;;;;;;15.73;9.18;;;;;;;12.76;74.83;99093.53;21064585;28;20424;-72
2022/04/23 08:16:57;;;;;;;13.18;8.88;;;;;;;13.23;72.83;99088.75;21057587;28;21240;-71
2022/04/23 08:26:58;;;;;;;10.85;8.00;;;;;;;13.53;70.89;99083.78;21054997;28;20080;-71
2022/04/23 08:37:00;;;;;;;11.40;8.05;;;;;;;13.78;70.06;99087.81;21042469;28;185739;-74
2022/04/23 08:47:02;;;;;;;9.02;6.30;;;;;;;14.37;66.99;99094.44;21049508;28;20408;-73
2022/04/23 08:57:04;;;;;;;10.02;7.38;;;;;;;14.04;67.37;99097.91;21058432;28;20040;-72
2022/04/23 09:07:17;;;;;;;9.13;6.63;;;;;;;14.47;65.54;99087.78;21056553;28;20044;-73
2022/04/23 09:27:43;;;;;;;9.80;6.75;;;;;;;15.13;61.81;99077.19;21065113;28;20081;-73
2022/04/23 09:48:25;;;;;;;8.20;6.57;;;;;;;14.97;61.65;99078.97;20942134;28;20042;-72
2022/04/23 09:58:29;;;;;;;7.88;6.10;;;;;;;15.46;61.60;99076.22;21069974;28;20093;-71
2022/04/23 10:08:34;;;;;;;8.97;5.47;;;;;;;15.71;59.67;99064.28;21072015;28;20052;-71
2022/04/23 10:18:38;;;;;;;8.25;6.38;;;;;;;15.47;59.92;99067.38;21072535;28;20405;-72
2022/04/23 10:28:44;;;;;;;7.27;5.67;;;;;;;15.65;58.54;99060.22;21066208;28;20040;-73
2022/04/23 10:38:53;;;;;;;7.43;5.68;;;;;;;15.56;59.89;99058.94;21159398;22;20059;-67
2022/04/23 10:49:13;;;;;;;7.35;5.47;;;;;;;16.40;56.84;99058.41;21007905;28;20048;-67
2022/04/23 10:59:38;;;;;;;8.50;4.88;;;;;;;16.08;58.77;99055.91;20975404;28;20481;-66
2022/04/23 11:20:03;;;;;;;6.57;5.50;;;;;;;15.96;56.27;99048.75;20975892;28;20052;-66
2022/04/23 11:30:06;;;;;;;6.07;4.93;;;;;;;15.84;55.31;99052.94;20974695;28;20040;-66
2022/04/23 11:40:12;;;;;;;6.10;4.45;;;;;;;15.66;56.52;99056.66;20974460;28;20049;-67
2022/04/23 11:50:21;;;;;;;6.15;4.28;;;;;;;15.47;56.16;99048.06;20971892;28;20056;-66
2022/04/23 12:00:24;;;;;;;5.70;4.28;;;;;;;15.62;58.02;99049.84;20968767;28;20098;-68
2022/04/23 12:10:29;;;;;;;5.70;4.18;;;;;;;16.07;55.86;99041.03;20965328;28;20048;-69
2022/04/23 12:20:35;;;;;;;9.53;4.23;;;;;;;16.09;54.09;99028.56;20963472;28;20075;-69
2022/04/23 12:40:58;;;;;;;6.97;3.63;;;;;;;16.75;53.35;99003.41;20957046;28;20048;-68
2022/04/23 12:51:06;;;;;;;8.23;4.93;;;;;;;15.92;53.68;98999.72;20969170;28;20131;-68
2022/04/23 13:01:09;;;;;;;10.52;5.32;;;;;;;15.93;53.72;98990.84;20968394;28;20436;-68
2022/04/23 13:11:33;;;;;;;6.97;5.05;;;;;;;15.80;54.96;98989.88;20968637;28;20051;-69
2022/04/23 13:21:33;;;;;;;8.90;5.22;;;;;;;16.25;54.35;98973.03;20967955;28;20482;-67
2022/04/23 13:31:39;;;;;;;8.48;5.82;;;;;;;16.25;53.44;98969.56;20968378;28;20040;-67
2022/04/23 13:41:42;;;;;;;8.68;5.22;;;;;;;16.96;51.60;98961.53;20968317;28;20060;-69
2022/04/23 13:51:44;;;;;;;8.93;5.38;;;;;;;17.07;52.22;98939.69;20965125;28;20055;-68
2022/04/23 14:10:04;;;;;;;9.73;5.85;;;;;;;16.41;52.31;98938.59;20962722;28;20040;-68
2022/04/23 14:12:08;;;;;;;10.63;6.68;;;;;;;16.36;52.79;98919.53;20959071;28;20056;-67
2022/04/23 14:22:09;;;;;;;10.50;5.82;;;;;;;16.54;52.07;98913.09;20957645;28;20059;-70
2022/04/23 14:32:11;;;;;;;11.40;5.88;;;;;;;16.47;53.57;98901.22;20958032;28;20068;-68
2022/04/23 14:42:14;;;;;;;8.98;5.55;;;;;;;16.56;53.69;98890.06;20960552;28;20138;-69
2022/04/23 15:02:36;;;;;;;12.95;7.30;;;;;;;16.49;52.97;98886.13;20953762;28;20052;-69
2022/04/23 15:12:38;;;;;;;7.43;5.50;;;;;;;16.60;53.39;98865.13;20955116;28;20063;-70
2022/04/23 15:22:40;;;;;;;11.88;5.85;;;;;;;16.70;52.32;98860.09;20953459;28;20048;-69
2022/04/23 15:32:42;;;;;;;9.93;6.93;;;;;;;16.45;52.19;98860.84;20953556;28;20037;-70
2022/04/23 15:42:43;;;;;;;10.82;5.97;;;;;;;16.55;51.97;98856.66;20951052;28;20055;-70
2022/04/23 15:52:45;;;;;;;10.23;6.50;;;;;;;16.28;53.64;98851.34;20951721;28;20186;-68
2022/04/23 16:03:24;;;;;;;8.63;6.50;;;;;;;16.48;53.95;98836.88;20949747;28;20048;-68
2022/04/23 16:13:08;;;;;;;11.00;6.60;;;;;;;16.33;54.06;98848.41;20949041;28;20059;-70
2022/04/23 16:23:30;;;;;;;10.88;6.47;;;;;;;16.05;55.20;98839.63;20948350;28;20053;-70
2022/04/23 16:33:31;;;;;;;17.30;10.77;;;;;;;15.92;57.71;98840.47;20947607;28;20151;-72
2022/04/23 16:53:53;;;;;;;18.60;12.50;;;;;;;15.55;60.34;98843.56;20947458;28;20040;-68
2022/04/23 17:03:55;;;;;;;18.27;13.15;;;;;;;15.44;60.05;98834.63;20945664;28;20060;-68
2022/04/23 17:13:56;;;;;;;20.08;13.15;;;;;;;15.16;60.60;98819.59;20945297;28;20122;-69
2022/04/23 17:23:58;;;;;;;22.42;13.50;;;;;;;15.23;61.04;98815.63;20943857;28;20161;-69
2022/04/23 17:33:59;;;;;;;18.80;13.45;;;;;;;15.20;61.59;98792.13;20944755;28;20485;-69
2022/04/23 17:44:06;;;;;;;20.27;14.10;;;;;;;15.05;62.25;98783.34;20944340;28;20050;-70
2022/04/23 17:54:08;;;;;;;20.65;14.30;;;;;;;14.93;63.07;98774.34;20944901;28;20048;-70
2022/04/23 18:14:30;;;;;;;20.60;13.65;;;;;;;14.70;64.46;98759.06;20947693;28;20121;-67
2022/04/23 18:24:32;;;;;;;19.30;13.82;;;;;;;14.47;66.38;98750.69;20957538;28;20051;-70
2022/04/23 18:34:33;;;;;;;20.77;13.25;;;;;;;14.42;66.29;98744.84;20957586;28;20048;-68
2022/04/23 18:44:35;;;;;;;18.48;12.63;;;;;;;14.34;66.84;98741.81;20955625;28;20047;-68
2022/04/23 18:54:38;;;;;;;18.88;12.40;;;;;;;14.35;66.76;98744.34;20954718;28;20048;-68
2022/04/23 19:04:41;;;;;;;19.48;12.95;;;;;;;14.14;67.71;98728.94;20953180;28;20067;-67
2022/04/23 19:14:43;;;;;;;23.83;15.50;;;;;;;13.80;69.79;98725.59;20970252;22;20049;-79
2022/04/23 19:35:44;;;;;;;20.58;13.98;;;;;;;13.46;72.55;98711.66;20965145;28;20123;-79
2022/04/23 19:45:45;;;;;;;23.50;15.20;;;;;;;13.22;73.65;98711.19;20932795;28;20485;-79
2022/04/23 19:55:50;;;;;;;22.90;13.98;;;;;;;13.10;74.63;98704.78;21020602;22;20070;-74
2022/04/23 20:05:51;;;;;;;23.03;14.90;;;;;;;12.82;76.20;98701.91;21065695;28;20056;-73
2022/04/23 20:15:57;;;;;;;22.77;14.95;;;;;;;12.74;76.71;98696.19;21060786;28;20048;-74
2022/04/23 20:25:58;;;;;;;21.33;15.07;;;;;;;12.83;75.21;98664.19;21065413;28;20549;-73
2022/04/23 20:46:20;;;;;;;22.05;14.32;;;;;;;12.90;74.89;98639.31;21048447;28;20090;-73
2022/04/23 20:56:22;;;;;;;22.95;13.93;;;;;;;12.73;75.13;98634.09;21043443;28;20040;-74
2022/04/23 21:06:23;;;;;;;19.95;14.15;;;;;;;12.62;75.67;98633.81;21054114;28;20135;-75
2022/04/23 21:16:25;;;;;;;21.08;14.68;;;;;;;12.52;76.30;98630.81;21040031;28;20101;-73
2022/04/23 21:26:27;;;;;;;22.63;15.40;;;;;;;12.26;77.46;98627.78;21044604;28;20056;-72
2022/04/23 21:36:28;;;;;;;22.38;15.15;;;;;;;12.13;78.23;98610.09;21046206;28;20044;-73
2022/04/23 21:46:30;;;;;;;21.23;15.15;;;;;;;12.04;78.70;98601.75;21049949;28;20056;-74
2022/04/23 21:56:31;;;;;;;22.70;14.85;;;;;;;11.95;79.23;98573.38;21058553;28;20055;-74
2022/04/23 22:06:33;;;;;;;22.60;14.07;;;;;;;11.91;78.87;98561.34;21057563;28;20051;-74
2022/04/23 22:16:34;;;;;;;21.48;13.50;;;;;;;11.91;78.98;98557.88;21069242;28;20040;-75
2022/04/23 22:26:36;;;;;;;23.30;14.10;;;;;;;11.96;78.68;98551.44;21062426;28;20480;-75
2022/04/23 22:36:38;;;;;;;19.35;13.23;;;;;;;11.91;78.58;98548.22;21061510;28;20046;-74
2022/04/23 22:46:39;;;;;;;19.75;12.98;;;;;;;11.87;79.22;98554.53;21057040;28;20044;-73
2022/04/23 22:56:41;;;;;;;20.40;13.95;;;;;;;11.82;78.57;98549.53;21058487;28;20494;-76
2022/04/23 23:06:43;;;;;;;19.35;13.07;;;;;;;11.73;78.94;98533.38;21055666;28;20411;-77
2022/04/23 23:16:44;;;;;;;18.73;12.65;;;;;;;11.78;78.86;98526.13;21055174;28;20489;-76
2022/04/23 23:26:46;;;;;;;23.67;12.82;;;;;;;11.61;79.00;98518.28;21068790;28;20506;-76
2022/04/23 23:36:47;;;;;;;17.13;11.95;;;;;;;11.77;77.97;98508.72;21052915;28;20044;-75
2022/04/23 23:46:49;;;;;;;16.30;11.48;;;;;;;11.81;77.10;98499.75;21053769;28;20506;-74
2022/04/23 23:56:50;;;;;;;15.48;10.98;;;;;;;11.84;76.92;98489.16;21057136;28;20048;-75
